Monday, November 20, 2017, 2:28 AM EST
Back to Local

KHWV, Shirley Brookhaven Airport

Location: Shirley, NY, United States Lat: 40.817
Local Time: 2:28 AM EST ( 7:28 GMT) Lon: -72.867
Time Zone: US/Eastern Elev: 82 ft

Show me the last for .
Show Decoded

2017-11-20 01:56 METAR KHWV 200656Z AUTO 28006KT 10SM FEW090 03/M01 A2981 RMK AO2 SLP094
                 T00331011 =
2017-11-20 00:56 METAR KHWV 200556Z AUTO 28008KT 10SM BKN090 05/M01 A2979 RMK AO2 SLP086
                 T00501011 10067 20044 51018 =
2017-11-19 23:56 METAR KHWV 200456Z AUTO 27008KT 10SM OVC085 06/M02 A2977 RMK AO2 SLP079
                 T00561017 401670044 =
2017-11-19 22:56 METAR KHWV 200356Z AUTO 28005KT 10SM FEW090 05/M02 A2975 RMK AO2 SLP075
                 T00501017 =
2017-11-19 21:56 METAR KHWV 200256Z AUTO 30011KT 10SM SCT090 06/M02 A2973 RMK AO2 SLP068
                 T00611022 51017 =
2017-11-19 20:56 METAR KHWV 200156Z AUTO 29008KT 10SM CLR 06/M03 A2972 RMK AO2 SLP063 T00611033 =
2017-11-19 19:56 METAR KHWV 200056Z AUTO 30013G20KT 10SM CLR 06/M04 A2970 RMK AO2 PK WND
                 30026/0004 SLP056 T00611039 =
2017-11-19 18:56 METAR KHWV 192356Z AUTO 30013G26KT 10SM CLR 06/M03 A2968 RMK AO2 PK WND
                 31034/2328 SLP050 T00611033 10106 20061 51041 =
2017-11-19 17:56 METAR KHWV 192256Z AUTO 30022G32KT 10SM BKN045 07/M03 A2965 RMK AO2 PK WND
                 29032/2253 SLP040 T00671028 =
2017-11-19 16:56 METAR KHWV 192156Z AUTO 31018G25KT 10SM SCT044 07/M02 A2960 RMK AO2 PK WND
                 30030/2128 SLP025 T00671017 =
2017-11-19 15:56 METAR KHWV 192056Z AUTO 30020G27KT 10SM CLR 08/M01 A2956 RMK AO2 PK WND
                 30034/2021 SLP009 T00781011 53040 =
2017-11-19 14:56 METAR KHWV 191956Z AUTO 32021G35KT 10SM FEW042 09/M01 A2951 RMK AO2 PK WND
                 31037/1922 SLP993 T00941006 =
2017-11-19 13:56 METAR KHWV 191856Z AUTO 30019G33KT 10SM FEW043 10/01 A2948 RMK AO2 PK WND
                 28040/1812 SLP981 T01000006 =
2017-11-19 12:56 METAR KHWV 191756Z AUTO 29026G33KT 10SM BKN044 11/01 A2944 RMK AO2 PK WND
                 27038/1731 SLP969 60002 T01060011 10144 20100 51047 =
2017-11-19 11:56 METAR KHWV 191656Z AUTO 29020G37KT 10SM CLR 11/01 A2942 RMK AO2 PK WND
                 30037/1649 SLP961 T01110011 =
2017-11-19 10:56 METAR KHWV 191556Z AUTO 28024G34KT 10SM FEW037 SCT049 12/03 A2937 RMK AO2 PK WND
                 28035/1516 SLP946 T01170033 =
2017-11-19 09:56 METAR KHWV 191456Z AUTO 28018G31KT 10SM SCT041 14/07 A2930 RMK AO2 PK WND
                 27032/1426 RAE09 SLP922 P0000 60002 T01390067 53017 =
2017-11-19 08:56 METAR KHWV 191356Z AUTO 23013G26KT 10SM -RA SCT015 BKN055 OVC080 14/13 A2925 RMK
                 AO2 PK WND 21029/1257 SLP905 P0000 T01390128 =
2017-11-19 08:35 METAR KHWV 191335Z AUTO 23017G25KT 8SM -RA SCT010 SCT024 OVC080 14/13 A2925 RMK
                 AO2 PK WND 21029/1257 P0000 T01440133 =
2017-11-19 08:08 METAR KHWV 191308Z AUTO 21018G24KT 6SM -RA BR BKN011 OVC022 14/14 A2924 RMK AO2
                 PK WND 21029/1257 P0000 T01440139 =
2017-11-19 07:56 METAR KHWV 191256Z AUTO 21015G25KT 6SM -RA BR SCT012 OVC021 14/14 A2924 RMK AO2
                 PK WND 19028/1205 SLP902 P0002 T01440139 =
2017-11-19 06:56 METAR KHWV 191156Z AUTO 20015G27KT 8SM -RA SCT012 OVC021 14/14 A2925 RMK AO2 PK
                 WND 21027/1155 SLP905 P0001 60030 70040 T01440139 10167 20139 56025 =
2017-11-19 05:56 METAR KHWV 191056Z AUTO 20015G27KT 5SM -RA BR BKN008 OVC015 14/14 A2927 RMK AO2
                 PK WND 22027/1053 CIG 006V013 SLP913 P0013 T01440139 =
2017-11-19 05:49 METAR KHWV 191049Z AUTO 21013G26KT 4SM -RA BR BKN008 BKN015 OVC020 14/14 A2928
                 RMK AO2 PK WND 23026/1041 P0012 T01440139 =
2017-11-19 05:22 METAR KHWV 191022Z AUTO 20015G24KT 5SM RA BR FEW008 BKN014 OVC021 14/14 A2929
                 RMK AO2 P0004 T01440139 =
2017-11-19 05:16 METAR KHWV 191016Z AUTO 20013G24KT 5SM -RA BR SCT010 BKN015 OVC021 14/14 A2929
                 RMK AO2 P0003 T01440139 =
2017-11-19 04:56 METAR KHWV 190956Z AUTO 20014G24KT 5SM -RA BR BKN009 BKN014 OVC024 14/14 A2930
                 RMK AO2 PK WND 20026/0904 RAE17B25 CIG 007V012 SLP920 P0006 T01440139 =
2017-11-19 04:30 METAR KHWV 190930Z AUTO 20012G20KT 5SM -RA BR FEW009 BKN014 OVC035 14/14 A2931
                 RMK AO2 PK WND 20026/0904 RAE17B25 P0004 T01440139 =
2017-11-19 04:23 METAR KHWV 190923Z AUTO 21015G24KT 7SM SCT011 BKN016 OVC037 14/14 A2932 RMK AO2
                 PK WND 20026/0904 RAE17 P0003 T01440139 =
2017-11-19 04:13 METAR KHWV 190913Z AUTO 21015G26KT 6SM -RA BR BKN011 BKN019 OVC044 14/14 A2932
                 RMK AO2 PK WND 20026/0904 P0003 T01440144 =
2017-11-19 03:56 METAR KHWV 190856Z AUTO 20018G28KT 5SM -RA BR SCT013 BKN017 OVC045 15/14 A2933
                 RMK AO2 PK WND 22028/0855 SLP930 P0010 60010 T01500144 56033 =
2017-11-19 02:56 METAR KHWV 190756Z AUTO 21016G26KT 9SM -RA FEW018 BKN040 OVC070 16/14 A2936 RMK
                 AO2 PK WND 21030/0742 RAB43 SLP941 P0000 T01560139 =
2017-11-19 02:48 METAR KHWV 190748Z AUTO 21014G30KT 9SM -RA SCT019 BKN040 OVC075 16/14 A2936 RMK
                 AO2 PK WND 21030/0742 RAB43 P0000 T01560139 =

Support USWX by starting your Amazon purchase here.